Arcadia, Wisconsin
Current Conditions -  °F | °C
As of 1:14 PM on Saturday 25 Oct 2014 (Local Time) from KONA Reporting Station
Clear Clear  
Wind Chill: 17°   Ceiling: Unl
Heat Index: 17°   Visibility: 10mi
Dew Point:   Wind: 13mph
Humidity: 32%   Direction: 280°W
Pressure: 30.02"   Gusts: 23mph
Location:  44.25°N, 91.5°W
Report Text: KONA 251814Z AUTO 28011G20KT 10SM CLR 17/00 A3002 RMK AO2
Loading
Personal Weather Stations






























Interactive Weather Map
Tropical Storm Tracking
New forecast layout! Learn more

10-Day Weather Forecast

Advertisements
Track Severe Weather on mobile